sensor_id;sensor_type;location;lat;lon;timestamp;pressure;altitude;pressure_sealevel;temperature;humidity
66547;BME280;53400;50.364;14.874;2023-12-22T00:01:03;96129.91;;;3.11;96.64
66547;BME280;53400;50.364;14.874;2023-12-22T00:03:40;96125.41;;;3.12;96.27
66547;BME280;53400;50.364;14.874;2023-12-22T00:06:08;96123.28;;;3.09;95.77
66547;BME280;53400;50.364;14.874;2023-12-22T00:08:33;96134.41;;;3.16;94.50
66547;BME280;53400;50.364;14.874;2023-12-22T00:11:00;96132.03;;;3.14;95.52
66547;BME280;53400;50.364;14.874;2023-12-22T00:13:26;96142.09;;;3.17;94.05
66547;BME280;53400;50.364;14.874;2023-12-22T00:15:52;96149.50;;;3.20;94.33
66547;BME280;53400;50.364;14.874;2023-12-22T00:18:18;96148.47;;;3.21;95.08
66547;BME280;53400;50.364;14.874;2023-12-22T00:20:45;96155.09;;;3.24;94.54
66547;BME280;53400;50.364;14.874;2023-12-22T00:23:12;96166.19;;;3.21;95.80
66547;BME280;53400;50.364;14.874;2023-12-22T00:25:40;96161.91;;;3.15;95.58
66547;BME280;53400;50.364;14.874;2023-12-22T00:28:06;96162.47;;;3.22;95.33
66547;BME280;53400;50.364;14.874;2023-12-22T00:30:32;96167.75;;;3.22;95.40
66547;BME280;53400;50.364;14.874;2023-12-22T00:32:58;96160.63;;;3.17;95.37
66547;BME280;53400;50.364;14.874;2023-12-22T00:35:24;96148.22;;;3.23;94.54
66547;BME280;53400;50.364;14.874;2023-12-22T00:37:51;96164.59;;;3.25;94.65
66547;BME280;53400;50.364;14.874;2023-12-22T00:40:20;96167.00;;;3.27;94.28
66547;BME280;53400;50.364;14.874;2023-12-22T00:42:46;96164.09;;;3.28;93.26
66547;BME280;53400;50.364;14.874;2023-12-22T00:45:12;96166.50;;;3.30;93.71
66547;BME280;53400;50.364;14.874;2023-12-22T00:47:39;96161.19;;;3.30;94.51
66547;BME280;53400;50.364;14.874;2023-12-22T00:50:06;96182.91;;;3.32;93.93
66547;BME280;53400;50.364;14.874;2023-12-22T00:52:32;96186.59;;;3.31;94.12
66547;BME280;53400;50.364;14.874;2023-12-22T00:54:58;96182.63;;;3.33;94.24
66547;BME280;53400;50.364;14.874;2023-12-22T00:57:25;96190.03;;;3.31;93.71
66547;BME280;53400;50.364;14.874;2023-12-22T00:59:52;96193.22;;;3.33;94.88
66547;BME280;53400;50.364;14.874;2023-12-22T01:02:18;96187.38;;;3.31;94.43
66547;BME280;53400;50.364;14.874;2023-12-22T01:04:44;96190.84;;;3.32;94.77
66547;BME280;53400;50.364;14.874;2023-12-22T01:07:11;96193.41;;;3.21;95.08
66547;BME280;53400;50.364;14.874;2023-12-22T01:09:37;96209.88;;;3.29;95.12
66547;BME280;53400;50.364;14.874;2023-12-22T01:12:03;96202.47;;;3.31;93.97
66547;BME280;53400;50.364;14.874;2023-12-22T01:14:31;96204.78;;;3.22;93.91
66547;BME280;53400;50.364;14.874;2023-12-22T01:16:57;96201.13;;;3.28;92.10
66547;BME280;53400;50.364;14.874;2023-12-22T01:19:25;96201.66;;;3.30;92.64
66547;BME280;53400;50.364;14.874;2023-12-22T01:21:51;96207.50;;;3.32;91.59
66547;BME280;53400;50.364;14.874;2023-12-22T01:24:17;96203.28;;;3.36;91.42
66547;BME280;53400;50.364;14.874;2023-12-22T01:26:43;96199.34;;;3.44;90.68
66547;BME280;53400;50.364;14.874;2023-12-22T01:29:09;96208.59;;;3.41;90.86
66547;BME280;53400;50.364;14.874;2023-12-22T01:31:36;96201.19;;;3.38;91.19
66547;BME280;53400;50.364;14.874;2023-12-22T01:34:03;96192.94;;;3.30;90.70
66547;BME280;53400;50.364;14.874;2023-12-22T01:36:29;96196.66;;;3.34;91.55
66547;BME280;53400;50.364;14.874;2023-12-22T01:38:55;96207.50;;;3.32;91.87
66547;BME280;53400;50.364;14.874;2023-12-22T01:41:21;96215.16;;;3.34;91.51
66547;BME280;53400;50.364;14.874;2023-12-22T01:43:47;96213.06;;;3.36;91.61
66547;BME280;53400;50.364;14.874;2023-12-22T01:46:13;96207.22;;;3.29;92.10
66547;BME280;53400;50.364;14.874;2023-12-22T01:48:42;96210.34;;;3.26;92.53
66547;BME280;53400;50.364;14.874;2023-12-22T01:51:10;96200.31;;;3.28;91.90
66547;BME280;53400;50.364;14.874;2023-12-22T01:53:37;96200.28;;;3.22;91.09
66547;BME280;53400;50.364;14.874;2023-12-22T01:56:04;96203.00;;;3.33;91.06
66547;BME280;53400;50.364;14.874;2023-12-22T01:58:33;96200.63;;;3.36;90.61
66547;BME280;53400;50.364;14.874;2023-12-22T02:01:01;96199.28;;;3.34;90.99
66547;BME280;53400;50.364;14.874;2023-12-22T02:03:27;96199.28;;;3.29;90.90
66547;BME280;53400;50.364;14.874;2023-12-22T02:05:55;96199.28;;;3.29;91.11
66547;BME280;53400;50.364;14.874;2023-12-22T02:08:22;96203.53;;;3.30;91.08
66547;BME280;53400;50.364;14.874;2023-12-22T02:10:50;96197.66;;;3.22;92.18
66547;BME280;53400;50.364;14.874;2023-12-22T02:13:16;96201.63;;;3.25;91.48
66547;BME280;53400;50.364;14.874;2023-12-22T02:15:42;96191.03;;;3.20;92.75
66547;BME280;53400;50.364;14.874;2023-12-22T02:18:12;96186.56;;;3.26;90.71
66547;BME280;53400;50.364;14.874;2023-12-22T02:20:40;96197.69;;;3.28;89.33
66547;BME280;53400;50.364;14.874;2023-12-22T02:23:08;96193.19;;;3.23;90.78
66547;BME280;53400;50.364;14.874;2023-12-22T02:25:34;96182.81;;;3.16;90.36
66547;BME280;53400;50.364;14.874;2023-12-22T02:28:03;96194.22;;;3.17;90.58
66547;BME280;53400;50.364;14.874;2023-12-22T02:30:32;96195.00;;;3.22;89.75
66547;BME280;53400;50.364;14.874;2023-12-22T02:33:02;96188.41;;;3.20;89.53
66547;BME280;53400;50.364;14.874;2023-12-22T02:35:32;96198.75;;;3.27;89.30
66547;BME280;53400;50.364;14.874;2023-12-22T02:37:59;96206.41;;;3.28;88.89
66547;BME280;53400;50.364;14.874;2023-12-22T02:40:28;96201.94;;;3.34;89.05
66547;BME280;53400;50.364;14.874;2023-12-22T02:42:55;96209.28;;;3.21;88.72
66547;BME280;53400;50.364;14.874;2023-12-22T02:45:21;96211.47;;;3.30;87.76
66547;BME280;53400;50.364;14.874;2023-12-22T02:47:47;96201.44;;;3.32;87.56
66547;BME280;53400;50.364;14.874;2023-12-22T02:50:15;96202.72;;;3.34;87.19
66547;BME280;53400;50.364;14.874;2023-12-22T02:52:42;96208.28;;;3.33;87.39
66547;BME280;53400;50.364;14.874;2023-12-22T02:55:09;96217.03;;;3.33;86.67
66547;BME280;53400;50.364;14.874;2023-12-22T02:57:37;96213.81;;;3.26;86.30
66547;BME280;53400;50.364;14.874;2023-12-22T03:00:03;96192.88;;;3.19;85.36
66547;BME280;53400;50.364;14.874;2023-12-22T03:02:30;96216.72;;;3.25;84.33
66547;BME280;53400;50.364;14.874;2023-12-22T03:04:56;96214.06;;;3.25;84.49
66547;BME280;53400;50.364;14.874;2023-12-22T03:07:23;96224.94;;;3.28;84.52
66547;BME280;53400;50.364;14.874;2023-12-22T03:09:48;96220.41;;;3.24;84.58
66547;BME280;53400;50.364;14.874;2023-12-22T03:12:14;96213.56;;;3.28;84.30
66547;BME280;53400;50.364;14.874;2023-12-22T03:14:42;96233.13;;;3.27;84.88
66547;BME280;53400;50.364;14.874;2023-12-22T03:17:08;96233.88;;;3.22;86.03
66547;BME280;53400;50.364;14.874;2023-12-22T03:19:36;96231.53;;;3.26;86.30
66547;BME280;53400;50.364;14.874;2023-12-22T03:22:03;96231.75;;;3.14;87.43
66547;BME280;53400;50.364;14.874;2023-12-22T03:24:29;96231.44;;;3.05;87.00
66547;BME280;53400;50.364;14.874;2023-12-22T03:26:55;96230.84;;;2.98;86.57
66547;BME280;53400;50.364;14.874;2023-12-22T03:29:21;96229.81;;;2.99;86.68
66547;BME280;53400;50.364;14.874;2023-12-22T03:31:49;96245.41;;;3.01;87.99
66547;BME280;53400;50.364;14.874;2023-12-22T03:34:15;96235.59;;;2.96;88.54
66547;BME280;53400;50.364;14.874;2023-12-22T03:36:41;96239.94;;;2.75;92.95
66547;BME280;53400;50.364;14.874;2023-12-22T03:39:07;96255.72;;;2.65;94.60
66547;BME280;53400;50.364;14.874;2023-12-22T03:41:33;96246.97;;;2.59;95.83
66547;BME280;53400;50.364;14.874;2023-12-22T03:43:59;96242.91;;;2.51;96.79
66547;BME280;53400;50.364;14.874;2023-12-22T03:46:25;96255.25;;;2.41;97.45
66547;BME280;53400;50.364;14.874;2023-12-22T03:48:53;96251.66;;;2.25;98.22
66547;BME280;53400;50.364;14.874;2023-12-22T03:51:19;96264.53;;;2.16;99.21
66547;BME280;53400;50.364;14.874;2023-12-22T03:53:45;96269.81;;;2.16;99.60
66547;BME280;53400;50.364;14.874;2023-12-22T03:56:11;96252.41;;;2.20;99.71
66547;BME280;53400;50.364;14.874;2023-12-22T03:58:37;96252.56;;;2.36;99.27
66547;BME280;53400;50.364;14.874;2023-12-22T04:01:04;96242.41;;;2.22;98.64
66547;BME280;53400;50.364;14.874;2023-12-22T04:03:33;96235.28;;;2.23;98.20
66547;BME280;53400;50.364;14.874;2023-12-22T04:06:03;96233.94;;;2.20;97.57
66547;BME280;53400;50.364;14.874;2023-12-22T04:08:29;96223.31;;;2.15;97.58
66547;BME280;53400;50.364;14.874;2023-12-22T04:10:55;96229.66;;;2.14;97.83
66547;BME280;53400;50.364;14.874;2023-12-22T04:13:21;96227.84;;;2.20;97.32
66547;BME280;53400;50.364;14.874;2023-12-22T04:15:47;96230.16;;;2.11;96.30
66547;BME280;53400;50.364;14.874;2023-12-22T04:18:13;96222.78;;;2.13;95.93
66547;BME280;53400;50.364;14.874;2023-12-22T04:20:41;96223.94;;;2.22;93.67
66547;BME280;53400;50.364;14.874;2023-12-22T04:23:09;96226.06;;;2.25;93.00
66547;BME280;53400;50.364;14.874;2023-12-22T04:25:36;96228.78;;;2.36;92.10
66547;BME280;53400;50.364;14.874;2023-12-22T04:28:02;96226.19;;;2.41;91.93
66547;BME280;53400;50.364;14.874;2023-12-22T04:30:28;96218.47;;;2.34;92.28
66547;BME280;53400;50.364;14.874;2023-12-22T04:32:54;96220.81;;;2.30;93.72
66547;BME280;53400;50.364;14.874;2023-12-22T04:35:20;96214.50;;;2.04;94.18
66547;BME280;53400;50.364;14.874;2023-12-22T04:37:46;96198.81;;;1.93;95.75
66547;BME280;53400;50.364;14.874;2023-12-22T04:40:13;96203.09;;;1.99;95.25
66547;BME280;53400;50.364;14.874;2023-12-22T04:42:39;96198.38;;;2.01;94.32
66547;BME280;53400;50.364;14.874;2023-12-22T04:45:05;96193.88;;;2.01;93.90
66547;BME280;53400;50.364;14.874;2023-12-22T04:47:31;96200.25;;;2.05;93.90
66547;BME280;53400;50.364;14.874;2023-12-22T04:49:57;96210.31;;;2.09;92.91
66547;BME280;53400;50.364;14.874;2023-12-22T04:52:24;96208.31;;;2.21;92.65
66547;BME280;53400;50.364;14.874;2023-12-22T04:54:50;96214.44;;;2.26;92.55
66547;BME280;53400;50.364;14.874;2023-12-22T04:57:17;96209.72;;;2.28;92.55
66547;BME280;53400;50.364;14.874;2023-12-22T04:59:44;96208.91;;;2.28;93.28
66547;BME280;53400;50.364;14.874;2023-12-22T05:02:10;96189.47;;;2.12;93.84
66547;BME280;53400;50.364;14.874;2023-12-22T05:04:36;96192.09;;;2.07;93.71
66547;BME280;53400;50.364;14.874;2023-12-22T05:07:02;96198.56;;;1.94;94.73
66547;BME280;53400;50.364;14.874;2023-12-22T05:09:33;96201.50;;;1.98;94.29
66547;BME280;53400;50.364;14.874;2023-12-22T05:11:59;96191.63;;;1.88;94.79
66547;BME280;53400;50.364;14.874;2023-12-22T05:14:26;96196.25;;;2.03;93.29
66547;BME280;53400;50.364;14.874;2023-12-22T05:16:52;96218.28;;;2.14;92.52
66547;BME280;53400;50.364;14.874;2023-12-22T05:19:21;96208.59;;;2.19;92.63
66547;BME280;53400;50.364;14.874;2023-12-22T05:21:47;96222.38;;;2.26;92.36
66547;BME280;53400;50.364;14.874;2023-12-22T05:24:15;96211.72;;;2.16;95.24
66547;BME280;53400;50.364;14.874;2023-12-22T05:26:41;96215.19;;;2.22;95.65
66547;BME280;53400;50.364;14.874;2023-12-22T05:29:08;96225.94;;;2.15;96.77
66547;BME280;53400;50.364;14.874;2023-12-22T05:31:36;96214.38;;;2.16;95.67
66547;BME280;53400;50.364;14.874;2023-12-22T05:34:02;96209.59;;;2.18;94.92
66547;BME280;53400;50.364;14.874;2023-12-22T05:36:29;96219.97;;;2.25;94.16
66547;BME280;53400;50.364;14.874;2023-12-22T05:38:55;96233.44;;;2.23;94.74
66547;BME280;53400;50.364;14.874;2023-12-22T05:41:21;96223.59;;;2.19;94.66
66547;BME280;53400;50.364;14.874;2023-12-22T05:43:47;96223.44;;;2.25;93.64
66547;BME280;53400;50.364;14.874;2023-12-22T05:46:13;96228.44;;;2.27;93.43
66547;BME280;53400;50.364;14.874;2023-12-22T05:48:41;96224.16;;;2.21;95.76
66547;BME280;53400;50.364;14.874;2023-12-22T05:51:06;96232.78;;;2.11;96.84
66547;BME280;53400;50.364;14.874;2023-12-22T05:53:39;96230.97;;;1.90;99.59
66547;BME280;53400;50.364;14.874;2023-12-22T05:56:16;96245.97;;;1.62;100.00
66547;BME280;53400;50.364;14.874;2023-12-22T05:58:42;96257.53;;;1.56;100.00
66547;BME280;53400;50.364;14.874;2023-12-22T06:01:13;96260.56;;;1.48;100.00
66547;BME280;53400;50.364;14.874;2023-12-22T06:03:41;96255.00;;;1.44;100.00
66547;BME280;53400;50.364;14.874;2023-12-22T06:06:07;96235.53;;;1.28;100.00
66547;BME280;53400;50.364;14.874;2023-12-22T06:08:33;96234.59;;;1.18;100.00
66547;BME280;53400;50.364;14.874;2023-12-22T06:10:59;96247.56;;;1.19;100.00
66547;BME280;53400;50.364;14.874;2023-12-22T06:13:25;96255.50;;;1.24;100.00
66547;BME280;53400;50.364;14.874;2023-12-22T06:15:51;96242.88;;;1.04;100.00
66547;BME280;53400;50.364;14.874;2023-12-22T06:18:18;96244.72;;;1.04;100.00
66547;BME280;53400;50.364;14.874;2023-12-22T06:20:45;96246.28;;;1.05;100.00
66547;BME280;53400;50.364;14.874;2023-12-22T06:23:11;96243.47;;;1.11;100.00
66547;BME280;53400;50.364;14.874;2023-12-22T06:25:37;96233.41;;;1.08;100.00
66547;BME280;53400;50.364;14.874;2023-12-22T06:28:04;96236.06;;;1.08;100.00
66547;BME280;53400;50.364;14.874;2023-12-22T06:30:30;96230.97;;;1.02;100.00
66547;BME280;53400;50.364;14.874;2023-12-22T06:32:56;96229.13;;;1.02;100.00
66547;BME280;53400;50.364;14.874;2023-12-22T06:35:22;96226.09;;;0.94;100.00
66547;BME280;53400;50.364;14.874;2023-12-22T06:37:52;96238.56;;;0.98;100.00
66547;BME280;53400;50.364;14.874;2023-12-22T06:40:20;96238.56;;;0.98;100.00
66547;BME280;53400;50.364;14.874;2023-12-22T06:42:46;96231.38;;;0.94;100.00
66547;BME280;53400;50.364;14.874;2023-12-22T06:45:13;96238.72;;;0.91;100.00
66547;BME280;53400;50.364;14.874;2023-12-22T06:47:39;96223.41;;;0.88;100.00
66547;BME280;53400;50.364;14.874;2023-12-22T06:50:06;96246.47;;;0.98;100.00
66547;BME280;53400;50.364;14.874;2023-12-22T06:52:32;96250.47;;;1.01;100.00
66547;BME280;53400;50.364;14.874;2023-12-22T06:54:59;96240.75;;;1.06;100.00
66547;BME280;53400;50.364;14.874;2023-12-22T06:57:25;96261.44;;;1.14;100.00
66547;BME280;53400;50.364;14.874;2023-12-22T06:59:51;96267.72;;;1.30;100.00
66547;BME280;53400;50.364;14.874;2023-12-22T07:02:17;96274.63;;;1.31;100.00
66547;BME280;53400;50.364;14.874;2023-12-22T07:05:02;96271.03;;;1.43;100.00
66547;BME280;53400;50.364;14.874;2023-12-22T07:07:34;96269.47;;;1.42;100.00
66547;BME280;53400;50.364;14.874;2023-12-22T07:10:01;96289.88;;;1.51;100.00
66547;BME280;53400;50.364;14.874;2023-12-22T07:12:27;96287.34;;;1.56;100.00
66547;BME280;53400;50.364;14.874;2023-12-22T07:14:53;96291.06;;;1.60;100.00
66547;BME280;53400;50.364;14.874;2023-12-22T07:17:20;96306.66;;;1.62;100.00
66547;BME280;53400;50.364;14.874;2023-12-22T07:19:45;96300.16;;;1.70;100.00
66547;BME280;53400;50.364;14.874;2023-12-22T07:22:12;96302.78;;;1.70;100.00
66547;BME280;53400;50.364;14.874;2023-12-22T07:24:38;96322.22;;;2.29;100.00
66547;BME280;53400;50.364;14.874;2023-12-22T07:27:06;96316.44;;;1.83;100.00
66547;BME280;53400;50.364;14.874;2023-12-22T07:29:32;96300.44;;;1.73;100.00
66547;BME280;53400;50.364;14.874;2023-12-22T07:31:58;96307.75;;;1.66;100.00
66547;BME280;53400;50.364;14.874;2023-12-22T07:34:24;96313.84;;;1.67;100.00
66547;BME280;53400;50.364;14.874;2023-12-22T07:36:51;96316.13;;;1.80;100.00
66547;BME280;53400;50.364;14.874;2023-12-22T07:39:19;96311.53;;;1.92;98.88
66547;BME280;53400;50.364;14.874;2023-12-22T07:41:45;96303.41;;;1.99;96.91
66547;BME280;53400;50.364;14.874;2023-12-22T07:44:12;96303.47;;;2.04;95.80
66547;BME280;53400;50.364;14.874;2023-12-22T07:46:38;96295.88;;;2.13;94.76
66547;BME280;53400;50.364;14.874;2023-12-22T07:49:04;96313.66;;;2.17;94.17
66547;BME280;53400;50.364;14.874;2023-12-22T07:51:31;96313.16;;;2.20;93.83
66547;BME280;53400;50.364;14.874;2023-12-22T07:53:57;96313.66;;;2.17;93.80
66547;BME280;53400;50.364;14.874;2023-12-22T07:56:23;96309.16;;;2.18;94.30
66547;BME280;53400;50.364;14.874;2023-12-22T07:58:52;96315.22;;;2.18;94.61
66547;BME280;53400;50.364;14.874;2023-12-22T08:01:21;96317.88;;;2.18;95.14
66547;BME280;53400;50.364;14.874;2023-12-22T08:03:47;96309.28;;;2.06;95.83
66547;BME280;53400;50.364;14.874;2023-12-22T08:06:13;96299.22;;;2.03;94.84
66547;BME280;53400;50.364;14.874;2023-12-22T08:08:40;96315.13;;;2.08;94.27
66547;BME280;53400;50.364;14.874;2023-12-22T08:11:09;96319.34;;;2.09;94.39
66547;BME280;53400;50.364;14.874;2023-12-22T08:13:35;96316.59;;;2.21;93.84
66547;BME280;53400;50.364;14.874;2023-12-22T08:16:02;96320.94;;;2.32;92.69
66547;BME280;53400;50.364;14.874;2023-12-22T08:18:29;96315.47;;;2.39;91.34
66547;BME280;53400;50.364;14.874;2023-12-22T08:20:56;96319.81;;;2.50;91.05
66547;BME280;53400;50.364;14.874;2023-12-22T08:23:22;96318.69;;;2.46;89.51
66547;BME280;53400;50.364;14.874;2023-12-22T08:25:49;96327.66;;;2.45;89.47
66547;BME280;53400;50.364;14.874;2023-12-22T08:28:15;96320.84;;;2.49;89.51
66547;BME280;53400;50.364;14.874;2023-12-22T08:30:41;96326.41;;;2.52;90.30
66547;BME280;53400;50.364;14.874;2023-12-22T08:33:07;96316.66;;;2.53;89.44
66547;BME280;53400;50.364;14.874;2023-12-22T08:35:35;96313.47;;;2.51;89.71
66547;BME280;53400;50.364;14.874;2023-12-22T08:38:01;96295.69;;;2.46;89.79
66547;BME280;53400;50.364;14.874;2023-12-22T08:40:27;96308.41;;;2.49;89.55
66547;BME280;53400;50.364;14.874;2023-12-22T08:42:52;96333.09;;;2.60;89.84
66547;BME280;53400;50.364;14.874;2023-12-22T08:45:20;96339.09;;;2.78;89.97
66547;BME280;53400;50.364;14.874;2023-12-22T08:47:47;96347.00;;;2.78;89.73
66547;BME280;53400;50.364;14.874;2023-12-22T08:50:13;96343.09;;;2.85;87.90
66547;BME280;53400;50.364;14.874;2023-12-22T08:52:40;96368.25;;;2.88;87.73
66547;BME280;53400;50.364;14.874;2023-12-22T08:55:07;96352.03;;;2.79;89.81
66547;BME280;53400;50.364;14.874;2023-12-22T08:57:33;96367.09;;;2.79;88.48
66547;BME280;53400;50.364;14.874;2023-12-22T09:00:03;96363.91;;;2.76;88.43
66547;BME280;53400;50.364;14.874;2023-12-22T09:02:29;96377.69;;;2.79;89.43
66547;BME280;53400;50.364;14.874;2023-12-22T09:04:55;96391.47;;;2.86;88.92
66547;BME280;53400;50.364;14.874;2023-12-22T09:07:21;96376.59;;;2.74;90.03
66547;BME280;53400;50.364;14.874;2023-12-22T09:09:50;96381.41;;;2.83;89.87
66547;BME280;53400;50.364;14.874;2023-12-22T09:12:16;96381.41;;;2.83;90.29
66547;BME280;53400;50.364;14.874;2023-12-22T09:14:42;96383.31;;;2.87;90.65
66547;BME280;53400;50.364;14.874;2023-12-22T09:17:08;96385.66;;;2.84;91.71
66547;BME280;53400;50.364;14.874;2023-12-22T09:19:34;96362.66;;;2.84;92.23
66547;BME280;53400;50.364;14.874;2023-12-22T09:22:04;96368.59;;;2.69;94.29
66547;BME280;53400;50.364;14.874;2023-12-22T09:24:31;96371.50;;;2.68;96.26
66547;BME280;53400;50.364;14.874;2023-12-22T09:26:58;96373.53;;;2.88;97.67
66547;BME280;53400;50.364;14.874;2023-12-22T09:29:28;96370.09;;;2.87;96.84
66547;BME280;53400;50.364;14.874;2023-12-22T09:31:54;96378.69;;;2.72;97.91
66547;BME280;53400;50.364;14.874;2023-12-22T09:34:20;96381.47;;;2.61;98.80
66547;BME280;53400;50.364;14.874;2023-12-22T09:36:46;96374.22;;;2.51;100.00
66547;BME280;53400;50.364;14.874;2023-12-22T09:39:12;96378.97;;;2.49;100.00
66547;BME280;53400;50.364;14.874;2023-12-22T09:41:43;96376.81;;;2.46;100.00
66547;BME280;53400;50.364;14.874;2023-12-22T09:44:19;96375.78;;;2.47;100.00
66547;BME280;53400;50.364;14.874;2023-12-22T09:46:47;96389.03;;;2.52;100.00
66547;BME280;53400;50.364;14.874;2023-12-22T09:49:18;96397.25;;;2.56;100.00
66547;BME280;53400;50.364;14.874;2023-12-22T09:51:44;96388.66;;;2.65;100.00
66547;BME280;53400;50.364;14.874;2023-12-22T09:54:12;96378.28;;;2.37;100.00
66547;BME280;53400;50.364;14.874;2023-12-22T09:56:40;96393.44;;;2.46;100.00
66547;BME280;53400;50.364;14.874;2023-12-22T09:59:11;96394.91;;;2.32;100.00
66547;BME280;53400;50.364;14.874;2023-12-22T10:01:40;96398.13;;;2.39;100.00
66547;BME280;53400;50.364;14.874;2023-12-22T10:04:08;96390.50;;;2.43;100.00
66547;BME280;53400;50.364;14.874;2023-12-22T10:06:34;96398.59;;;2.58;98.95
66547;BME280;53400;50.364;14.874;2023-12-22T10:09:00;96401.97;;;2.75;98.85
66547;BME280;53400;50.364;14.874;2023-12-22T10:11:28;96411.47;;;2.76;97.82
66547;BME280;53400;50.364;14.874;2023-12-22T10:13:55;96409.97;;;2.81;96.53
66547;BME280;53400;50.364;14.874;2023-12-22T10:16:21;96402.53;;;2.78;96.68
66547;BME280;53400;50.364;14.874;2023-12-22T10:18:48;96393.59;;;2.84;95.13
66547;BME280;53400;50.364;14.874;2023-12-22T10:21:15;96395.31;;;3.00;93.49
66547;BME280;53400;50.364;14.874;2023-12-22T10:23:41;96391.69;;;3.06;92.56
66547;BME280;53400;50.364;14.874;2023-12-22T10:26:10;96390.63;;;3.07;87.17
66547;BME280;53400;50.364;14.874;2023-12-22T10:28:37;96414.13;;;3.04;87.24
66547;BME280;53400;50.364;14.874;2023-12-22T10:31:03;96398.69;;;2.90;88.15
66547;BME280;53400;50.364;14.874;2023-12-22T10:33:32;96396.53;;;2.87;90.42
66547;BME280;53400;50.364;14.874;2023-12-22T10:35:59;96409.34;;;3.01;90.86
66547;BME280;53400;50.364;14.874;2023-12-22T10:38:26;96412.03;;;3.06;90.82
66547;BME280;53400;50.364;14.874;2023-12-22T10:40:52;96417.88;;;3.08;91.24
66547;BME280;53400;50.364;14.874;2023-12-22T10:43:18;96429.34;;;3.18;89.99
66547;BME280;53400;50.364;14.874;2023-12-22T10:45:45;96428.09;;;3.26;88.31
66547;BME280;53400;50.364;14.874;2023-12-22T10:48:11;96425.06;;;3.44;87.70
66547;BME280;53400;50.364;14.874;2023-12-22T10:50:39;96413.03;;;3.64;86.06
66547;BME280;53400;50.364;14.874;2023-12-22T10:53:10;96423.25;;;3.50;84.78
66547;BME280;53400;50.364;14.874;2023-12-22T10:55:36;96411.03;;;3.44;83.42
66547;BME280;53400;50.364;14.874;2023-12-22T10:58:03;96410.78;;;3.45;84.93
66547;BME280;53400;50.364;14.874;2023-12-22T11:00:32;96412.84;;;3.38;81.36
66547;BME280;53400;50.364;14.874;2023-12-22T11:03:01;96417.00;;;3.29;79.23
66547;BME280;53400;50.364;14.874;2023-12-22T11:05:29;96421.28;;;3.35;80.04
66547;BME280;53400;50.364;14.874;2023-12-22T11:08:00;96423.22;;;3.45;77.79
66547;BME280;53400;50.364;14.874;2023-12-22T11:10:31;96411.28;;;3.42;76.65
66547;BME280;53400;50.364;14.874;2023-12-22T11:12:59;96424.56;;;3.48;74.75
66547;BME280;53400;50.364;14.874;2023-12-22T11:15:26;96421.13;;;3.47;74.03
66547;BME280;53400;50.364;14.874;2023-12-22T11:17:55;96424.56;;;3.48;74.68
66547;BME280;53400;50.364;14.874;2023-12-22T11:20:24;96432.94;;;4.87;91.59
66547;BME280;53400;50.364;14.874;2023-12-22T11:22:52;96407.88;;;3.84;74.68
66547;BME280;53400;50.364;14.874;2023-12-22T11:25:20;96432.28;;;3.54;76.00
66547;BME280;53400;50.364;14.874;2023-12-22T11:27:52;96428.44;;;3.35;77.07
66547;BME280;53400;50.364;14.874;2023-12-22T11:30:20;96443.25;;;3.36;75.36
66547;BME280;53400;50.364;14.874;2023-12-22T11:32:49;96449.03;;;3.33;73.91
66547;BME280;53400;50.364;14.874;2023-12-22T11:35:16;96439.53;;;3.32;73.84
66547;BME280;53400;50.364;14.874;2023-12-22T11:37:43;96410.94;;;3.29;74.18
66547;BME280;53400;50.364;14.874;2023-12-22T11:40:10;96400.53;;;3.22;73.87
66547;BME280;53400;50.364;14.874;2023-12-22T11:42:39;96423.47;;;3.11;74.38
66547;BME280;53400;50.364;14.874;2023-12-22T11:45:11;96420.47;;;3.03;75.09
66547;BME280;53400;50.364;14.874;2023-12-22T11:47:38;96418.53;;;3.20;75.86
66547;BME280;53400;50.364;14.874;2023-12-22T11:50:09;96427.47;;;3.14;76.83
66547;BME280;53400;50.364;14.874;2023-12-22T11:52:35;96426.56;;;3.03;79.40
66547;BME280;53400;50.364;14.874;2023-12-22T11:55:02;96436.03;;;2.72;86.56
66547;BME280;53400;50.364;14.874;2023-12-22T11:57:30;96430.00;;;2.55;89.71
66547;BME280;53400;50.364;14.874;2023-12-22T11:59:57;96419.75;;;2.58;92.09
66547;BME280;53400;50.364;14.874;2023-12-22T12:02:25;96432.34;;;2.51;93.39
66547;BME280;53400;50.364;14.874;2023-12-22T12:04:51;96441.63;;;2.53;94.50
66547;BME280;53400;50.364;14.874;2023-12-22T12:07:37;96428.03;;;2.67;94.02
66547;BME280;53400;50.364;14.874;2023-12-22T12:10:08;96427.69;;;2.85;91.20
66547;BME280;53400;50.364;14.874;2023-12-22T12:12:35;96420.81;;;2.84;90.51
66547;BME280;53400;50.364;14.874;2023-12-22T12:15:10;96435.19;;;2.93;90.76
66547;BME280;53400;50.364;14.874;2023-12-22T12:17:42;96424.81;;;2.87;91.43
66547;BME280;53400;50.364;14.874;2023-12-22T12:20:09;96424.81;;;2.87;92.63
66547;BME280;53400;50.364;14.874;2023-12-22T12:22:37;96424.75;;;2.82;91.65
66547;BME280;53400;50.364;14.874;2023-12-22T12:25:10;96420.88;;;2.89;91.79
66547;BME280;53400;50.364;14.874;2023-12-22T12:27:37;96417.03;;;3.02;91.65
66547;BME280;53400;50.364;14.874;2023-12-22T12:30:08;96427.41;;;3.09;90.16
66547;BME280;53400;50.364;14.874;2023-12-22T12:32:36;96410.53;;;3.15;89.56
66547;BME280;53400;50.364;14.874;2023-12-22T12:35:05;96422.34;;;3.07;89.86
66547;BME280;53400;50.364;14.874;2023-12-22T12:37:32;96422.91;;;3.09;90.40
66547;BME280;53400;50.364;14.874;2023-12-22T12:39:59;96419.19;;;3.10;92.65
66547;BME280;53400;50.364;14.874;2023-12-22T12:42:31;96424.41;;;3.00;93.83
66547;BME280;53400;50.364;14.874;2023-12-22T12:44:57;96408.03;;;3.03;94.15
66547;BME280;53400;50.364;14.874;2023-12-22T12:47:23;96412.59;;;3.08;93.66
66547;BME280;53400;50.364;14.874;2023-12-22T12:49:56;96416.47;;;3.00;93.95
66547;BME280;53400;50.364;14.874;2023-12-22T12:52:24;96402.81;;;3.08;94.02
66547;BME280;53400;50.364;14.874;2023-12-22T12:54:51;96391.03;;;2.94;92.55
66547;BME280;53400;50.364;14.874;2023-12-22T12:57:18;96391.03;;;2.94;92.46